Time;durP1;ratioP1;P1;durP2;ratioP2;P2;SDS_P1;SDS_P2;PMS_P1;PMS_P2;Temp;Humidity;BMP_temperature;BMP_pressure;BME280_temperature;BME280_humidity;BME280_pressure;Samples;Min_cycle;Max_cycle;Signal;HPM_P1;HPM_P2
2023/10/01 00:00:11;;;;;;;11.37;6.63;;;15.30;99.90;;;;;;5074859;28;20183;-77
2023/10/01 00:02:38;;;;;;;7.37;5.10;;;15.20;99.90;;;;;;5090510;28;20581;-77
2023/10/01 00:05:05;;;;;;;8.20;5.50;;;15.20;99.90;;;;;;5091127;28;21131;-77
2023/10/01 00:07:37;;;;;;;6.50;5.17;;;15.10;99.90;;;;;;5072943;28;21077;-77
2023/10/01 00:10:12;;;;;;;6.60;5.00;;;15.10;99.90;;;;;;5076485;28;20945;-76
2023/10/01 00:12:44;;;;;;;6.20;5.20;;;15.10;99.90;;;;;;5076653;28;20614;-77
2023/10/01 00:15:13;;;;;;;6.83;5.37;;;15.00;99.90;;;;;;5070444;28;20669;-77
2023/10/01 00:17:40;;;;;;;8.90;4.87;;;15.00;99.90;;;;;;5052818;28;20610;-77
2023/10/01 00:20:17;;;;;;;7.50;5.70;;;15.00;99.90;;;;;;5053043;28;20613;-77
2023/10/01 00:22:43;;;;;;;9.50;5.83;;;15.00;99.90;;;;;;5053044;28;20979;-77
2023/10/01 00:25:10;;;;;;;6.43;4.90;;;15.00;99.90;;;;;;5070860;28;20644;-77
2023/10/01 00:27:37;;;;;;;7.37;5.93;;;15.00;99.90;;;;;;5052729;28;20654;-78
2023/10/01 00:30:04;;;;;;;5.60;4.60;;;14.90;99.90;;;;;;5035580;28;20690;-77
2023/10/01 00:32:30;;;;;;;8.43;5.80;;;14.90;99.90;;;;;;5072588;28;21077;-77
2023/10/01 00:34:57;;;;;;;5.00;4.43;;;14.90;99.90;;;;;;5056443;28;20625;-77
2023/10/01 00:37:23;;;;;;;6.27;4.83;;;14.90;99.90;;;;;;5096604;28;20761;-77
2023/10/01 00:39:54;;;;;;;12.20;6.03;;;14.90;99.90;;;;;;5056353;28;20681;-75
2023/10/01 00:42:24;;;;;;;7.47;6.20;;;14.80;99.90;;;;;;5044749;28;20602;-76
2023/10/01 00:44:50;;;;;;;6.07;5.47;;;14.80;99.90;;;;;;5086461;28;20590;-77
2023/10/01 00:47:16;;;;;;;7.90;4.97;;;14.80;99.90;;;;;;5059520;28;21170;-77
2023/10/01 00:49:46;;;;;;;10.37;6.40;;;14.80;99.90;;;;;;5038323;28;20219;-77
2023/10/01 00:52:20;;;;;;;8.67;6.17;;;14.80;99.90;;;;;;5051017;28;20594;-78
2023/10/01 00:54:47;;;;;;;7.40;5.80;;;14.80;99.90;;;;;;5052396;28;20591;-78
2023/10/01 00:57:15;;;;;;;7.63;6.03;;;14.70;99.90;;;;;;5070267;28;20793;-78
2023/10/01 00:59:43;;;;;;;8.70;6.30;;;14.70;99.90;;;;;;5070459;28;20981;-78
2023/10/01 01:02:10;;;;;;;9.93;7.50;;;14.70;99.90;;;;;;5070588;28;20583;-78
2023/10/01 01:04:42;;;;;;;6.60;5.70;;;14.70;99.90;;;;;;5049114;28;20701;-76
2023/10/01 01:07:16;;;;;;;9.63;5.93;;;14.70;99.90;;;;;;5070506;28;20690;-76
2023/10/01 01:09:43;;;;;;;5.63;5.07;;;14.70;99.90;;;;;;5036048;28;20693;-77
2023/10/01 01:12:18;;;;;;;8.13;5.18;;;14.70;99.90;;;;;;5035260;28;21175;-77
2023/10/01 01:14:44;;;;;;;7.70;5.80;;;14.70;99.90;;;;;;5039207;28;20171;-77
2023/10/01 01:17:16;;;;;;;6.27;4.80;;;14.70;99.90;;;;;;5056061;28;20578;-77
2023/10/01 01:19:53;;;;;;;6.50;5.20;;;14.70;99.90;;;;;;5056086;28;20698;-77
2023/10/01 01:22:28;;;;;;;7.80;5.60;;;14.70;99.90;;;;;;5056157;28;20594;-76
2023/10/01 01:25:00;;;;;;;6.77;4.63;;;14.70;99.90;;;;;;5058910;28;20593;-76
2023/10/01 01:27:31;;;;;;;8.30;5.80;;;14.70;99.90;;;;;;5055585;28;20634;-77
2023/10/01 01:30:07;;;;;;;7.20;5.35;;;14.70;99.90;;;;;;5035880;28;20992;-77
2023/10/01 01:32:36;;;;;;;7.73;5.47;;;14.70;99.90;;;;;;5045339;28;20533;-76
2023/10/01 01:35:05;;;;;;;9.07;6.17;;;14.70;99.90;;;;;;5058598;28;20578;-77
2023/10/01 01:37:46;;;;;;;5.53;4.60;;;14.60;99.90;;;;;;5075540;28;20612;-77
2023/10/01 01:40:25;;;;;;;6.85;4.93;;;14.60;99.90;;;;;;5075594;28;20604;-78
2023/10/01 01:42:56;;;;;;;6.47;5.23;;;14.60;99.90;;;;;;5075536;28;20183;-77
2023/10/01 01:45:30;;;;;;;6.20;4.50;;;14.60;99.90;;;;;;5058647;28;20631;-77
2023/10/01 01:47:56;;;;;;;6.50;4.20;;;14.60;99.90;;;;;;5093344;28;20697;-78
2023/10/01 01:50:26;;;;;;;8.47;5.00;;;14.60;99.90;;;;;;5063964;28;20575;-78
2023/10/01 01:52:56;;;;;;;7.47;4.30;;;14.60;99.90;;;;;;5055240;28;20176;-78
2023/10/01 01:55:23;;;;;;;8.10;5.30;;;14.60;99.90;;;;;;5072946;28;21111;-77
2023/10/01 01:58:04;;;;;;;7.13;5.10;;;14.50;99.90;;;;;;5055103;28;21203;-77
2023/10/01 02:00:34;;;;;;;7.97;5.00;;;14.50;99.90;;;;;;5058747;28;20605;-76
2023/10/01 02:03:10;;;;;;;6.20;4.57;;;14.50;99.90;;;;;;5073812;28;20594;-76
2023/10/01 02:05:37;;;;;;;6.03;4.15;;;14.50;99.90;;;;;;5055098;28;20594;-76
2023/10/01 02:08:07;;;;;;;6.03;4.90;;;14.50;99.90;;;;;;5054795;28;20220;-76
2023/10/01 02:10:46;;;;;;;6.00;5.20;;;14.60;99.90;;;;;;5072593;28;20586;-76
2023/10/01 02:13:14;;;;;;;7.33;5.83;;;14.50;99.90;;;;;;5038307;28;20601;-76
2023/10/01 02:15:40;;;;;;;7.60;5.53;;;14.50;99.90;;;;;;5054793;28;20590;-76
2023/10/01 02:18:09;;;;;;;8.47;5.40;;;14.50;99.90;;;;;;5035403;28;20542;-77
2023/10/01 02:20:41;;;;;;;6.57;5.47;;;14.50;99.90;;;;;;5054647;28;20617;-77
2023/10/01 02:23:12;;;;;;;6.82;4.82;;;14.50;99.90;;;;;;5054722;28;20204;-77
2023/10/01 02:25:45;;;;;;;7.80;4.87;;;14.50;99.90;;;;;;5053602;28;20187;-77
2023/10/01 02:28:15;;;;;;;6.47;4.90;;;14.50;99.90;;;;;;5054342;28;20650;-77
2023/10/01 02:30:44;;;;;;;5.90;4.13;;;14.50;99.90;;;;;;5051550;28;20577;-77
2023/10/01 02:33:17;;;;;;;7.13;5.43;;;14.50;99.90;;;;;;5074471;28;20589;-77
2023/10/01 02:35:49;;;;;;;7.40;4.77;;;14.50;99.90;;;;;;5074113;28;20593;-77
2023/10/01 02:41:02;;;;;;;6.37;4.17;;;14.50;99.90;;;;;;5034331;28;20587;-77
2023/10/01 02:43:34;;;;;;;6.73;4.50;;;14.50;99.90;;;;;;5064293;28;21210;-77
2023/10/01 02:46:07;;;;;;;6.20;4.57;;;14.50;99.90;;;;;;5054065;28;20601;-77
2023/10/01 02:48:34;;;;;;;7.20;5.03;;;14.50;99.90;;;;;;5054000;28;20641;-77
2023/10/01 02:51:16;;;;;;;6.50;5.13;;;14.50;99.90;;;;;;5053704;28;20724;-77
2023/10/01 02:53:42;;;;;;;8.17;5.23;;;14.50;99.90;;;;;;5080781;23;20666;-75
2023/10/01 02:56:16;;;;;;;5.97;5.00;;;14.50;99.90;;;;;;5065315;28;20646;-75
2023/10/01 02:58:49;;;;;;;6.90;4.43;;;14.50;99.90;;;;;;5073996;28;20578;-75
2023/10/01 03:01:15;;;;;;;6.30;4.40;;;14.50;99.90;;;;;;5052846;28;20666;-75
2023/10/01 03:03:41;;;;;;;9.03;5.23;;;14.50;99.90;;;;;;5057108;28;21086;-75
2023/10/01 03:06:10;;;;;;;8.80;5.07;;;14.50;99.90;;;;;;5056771;28;20682;-75
2023/10/01 03:11:16;;;;;;;7.07;4.50;;;14.50;99.90;;;;;;5073517;28;20582;-79
2023/10/01 03:13:46;;;;;;;6.63;4.73;;;14.50;99.90;;;;;;5073910;28;20252;-79
2023/10/01 03:19:04;;;;;;;6.50;4.50;;;14.40;99.90;;;;;;5069311;28;20590;-78
2023/10/01 03:24:14;;;;;;;5.47;4.83;;;14.50;99.90;;;;;;5073590;28;20632;-78
2023/10/01 03:26:44;;;;;;;7.93;4.57;;;14.50;99.90;;;;;;5073271;28;20650;-78
2023/10/01 03:29:14;;;;;;;6.83;4.87;;;14.50;99.90;;;;;;5073308;28;20238;-78
2023/10/01 03:31:53;;;;;;;6.17;4.33;;;14.50;99.90;;;;;;5073146;28;20677;-78
2023/10/01 03:34:28;;;;;;;5.70;4.00;;;14.50;99.90;;;;;;5073377;28;20592;-78
2023/10/01 03:36:58;;;;;;;6.43;4.37;;;14.50;99.90;;;;;;5073000;28;20946;-78
2023/10/01 03:39:26;;;;;;;7.83;4.80;;;14.50;99.90;;;;;;5073361;28;20578;-78
2023/10/01 03:42:10;;;;;;;4.97;4.23;;;14.50;99.90;;;;;;5073314;28;20586;-78
2023/10/01 03:47:24;;;;;;;6.53;4.50;;;14.60;99.90;;;;;;5091303;28;20593;-75
2023/10/01 03:49:55;;;;;;;6.50;3.93;;;14.50;99.90;;;;;;5091067;28;20588;-75
2023/10/01 03:52:21;;;;;;;6.30;4.80;;;14.50;99.90;;;;;;5090974;28;20617;-76
2023/10/01 03:57:23;;;;;;;7.83;4.63;;;14.60;99.90;;;;;;5091264;28;20579;-75
2023/10/01 03:59:52;;;;;;;8.47;4.43;;;14.60;99.90;;;;;;5056393;28;21027;-75
2023/10/01 04:02:46;;;;;;;5.72;4.97;;;14.60;99.90;;;;;;5090821;28;20637;-75
2023/10/01 04:07:59;;;;;;;7.90;4.70;;;14.60;99.90;;;;;;5091245;28;20636;-74
2023/10/01 04:12:54;;;;;;;6.37;5.00;;;14.60;99.90;;;;;;5072668;28;21256;-73
2023/10/01 04:15:41;;;;;;;7.57;4.87;;;14.60;99.90;;;;;;5072447;28;20175;-73
2023/10/01 04:21:09;;;;;;;7.28;5.07;;;14.60;99.90;;;;;;5072870;28;20672;-73
2023/10/01 04:23:40;;;;;;;6.47;4.50;;;14.60;99.90;;;;;;5090684;28;20562;-73
2023/10/01 04:26:16;;;;;;;6.13;4.83;;;14.60;99.90;;;;;;5072558;28;20229;-73
2023/10/01 04:28:50;;;;;;;8.83;5.80;;;14.60;99.90;;;;;;5056035;28;21221;-73
2023/10/01 04:31:19;;;;;;;5.90;4.70;;;14.60;99.90;;;;;;5072618;28;20589;-74
2023/10/01 04:33:49;;;;;;;6.20;4.85;;;14.60;99.90;;;;;;5090700;28;21022;-74
2023/10/01 04:36:16;;;;;;;8.25;4.53;;;14.60;99.90;;;;;;5072335;28;20198;-74
2023/10/01 04:38:43;;;;;;;7.50;5.25;;;14.60;99.90;;;;;;5072792;28;20181;-74
2023/10/01 04:41:16;;;;;;;6.00;4.80;;;14.50;99.90;;;;;;5072753;28;20179;-74
2023/10/01 04:43:51;;;;;;;10.47;5.93;;;14.50;99.90;;;;;;5072388;28;20729;-74
2023/10/01 04:46:24;;;;;;;6.27;4.60;;;14.50;99.90;;;;;;5072304;28;20588;-74
2023/10/01 04:48:51;;;;;;;7.30;4.83;;;14.50;99.90;;;;;;5058189;28;20663;-73
2023/10/01 04:51:17;;;;;;;6.70;5.87;;;14.50;99.90;;;;;;5076412;28;20600;-73
2023/10/01 04:53:47;;;;;;;5.67;4.43;;;14.50;99.90;;;;;;5056083;28;20722;-73
2023/10/01 04:56:20;;;;;;;6.27;4.87;;;14.50;99.90;;;;;;5090915;28;21134;-73
2023/10/01 04:58:51;;;;;;;9.60;5.00;;;14.50;99.90;;;;;;5094504;28;20592;-73
2023/10/01 05:01:23;;;;;;;6.20;4.20;;;14.50;99.90;;;;;;5076221;28;20945;-74
2023/10/01 05:03:50;;;;;;;6.33;4.30;;;14.50;99.90;;;;;;5094596;28;20642;-73
2023/10/01 05:06:21;;;;;;;6.10;4.30;;;14.50;99.90;;;;;;5075894;28;20597;-73
2023/10/01 05:08:52;;;;;;;5.87;3.97;;;14.50;99.90;;;;;;5059453;28;20637;-74
2023/10/01 05:11:21;;;;;;;6.50;4.80;;;14.50;99.90;;;;;;5075797;28;20631;-73
2023/10/01 05:13:53;;;;;;;7.43;4.37;;;14.50;99.90;;;;;;5076295;28;20953;-73
2023/10/01 05:16:26;;;;;;;7.10;4.50;;;14.50;99.90;;;;;;5093913;28;20574;-74
2023/10/01 05:19:09;;;;;;;6.47;4.33;;;14.50;99.90;;;;;;5076166;28;20582;-73
2023/10/01 05:21:49;;;;;;;5.77;4.13;;;14.50;99.90;;;;;;5059308;28;20608;-73
2023/10/01 05:24:36;;;;;;;7.43;6.18;;;14.50;99.90;;;;;;5075245;28;20625;-73
2023/10/01 05:27:18;;;;;;;6.50;3.93;;;14.50;99.90;;;;;;5075656;28;20179;-73
2023/10/01 05:29:45;;;;;;;7.00;4.50;;;14.50;99.90;;;;;;5093920;28;20665;-74
2023/10/01 05:32:18;;;;;;;8.03;5.60;;;14.40;99.90;;;;;;5058791;28;20592;-73
2023/10/01 05:34:46;;;;;;;7.27;4.63;;;14.40;99.90;;;;;;5093492;28;20565;-72
2023/10/01 05:37:24;;;;;;;6.70;4.40;;;14.40;99.90;;;;;;5074935;28;20570;-73
2023/10/01 05:39:57;;;;;;;6.20;5.03;;;14.40;99.90;;;;;;5075786;28;20582;-73
2023/10/01 05:42:28;;;;;;;8.10;5.13;;;14.40;99.90;;;;;;5075320;28;20606;-72
2023/10/01 05:44:56;;;;;;;7.80;4.80;;;14.40;99.90;;;;;;5093542;28;20688;-72
2023/10/01 05:47:41;;;;;;;6.93;5.00;;;14.40;99.90;;;;;;5093185;28;20574;-73
2023/10/01 05:50:12;;;;;;;8.33;4.70;;;14.40;99.90;;;;;;5075130;28;21296;-73
2023/10/01 05:52:40;;;;;;;5.30;3.80;;;14.50;99.90;;;;;;5074849;28;20724;-73
2023/10/01 05:55:12;;;;;;;6.13;4.20;;;14.50;99.90;;;;;;5093413;28;20643;-73
2023/10/01 05:57:38;;;;;;;5.43;4.40;;;14.50;99.90;;;;;;5075207;28;20504;-73
2023/10/01 06:00:16;;;;;;;6.67;4.63;;;14.50;99.90;;;;;;5092036;28;20589;-73
2023/10/01 06:02:47;;;;;;;6.37;4.83;;;14.50;99.90;;;;;;5075017;28;20632;-73
2023/10/01 06:05:32;;;;;;;6.90;4.90;;;14.50;99.90;;;;;;5074965;28;20629;-73
2023/10/01 06:07:58;;;;;;;9.00;4.80;;;14.50;99.90;;;;;;5052604;28;21064;-73
2023/10/01 06:10:28;;;;;;;7.68;5.20;;;14.50;99.90;;;;;;5074588;28;20618;-73
2023/10/01 06:12:56;;;;;;;8.40;5.20;;;14.50;99.90;;;;;;5092986;28;20298;-73
2023/10/01 06:15:29;;;;;;;9.80;6.33;;;14.50;99.90;;;;;;5092687;28;20928;-72
2023/10/01 06:17:55;;;;;;;6.80;4.63;;;14.50;99.90;;;;;;5093174;28;20978;-73
2023/10/01 06:20:26;;;;;;;7.63;4.70;;;14.60;99.90;;;;;;5055661;28;20575;-73
2023/10/01 06:22:55;;;;;;;5.77;4.17;;;14.60;99.90;;;;;;5092835;28;20712;-73
2023/10/01 06:25:37;;;;;;;4.13;3.63;;;14.60;99.90;;;;;;5074419;28;20940;-73
2023/10/01 06:28:10;;;;;;;6.07;4.10;;;14.70;99.90;;;;;;5074288;28;20672;-73
2023/10/01 06:30:39;;;;;;;6.00;3.70;;;14.70;99.90;;;;;;5092546;28;20597;-73
2023/10/01 06:33:24;;;;;;;5.73;4.10;;;14.70;99.90;;;;;;5074499;28;20678;-74
2023/10/01 06:36:15;;;;;;;5.63;4.70;;;14.80;99.90;;;;;;5092452;28;20929;-73
2023/10/01 06:38:38;;;;;;;8.90;4.90;;;14.80;99.90;;;;;;5092448;28;20621;-73
2023/10/01 06:41:06;;;;;;;6.30;4.57;;;14.80;99.90;;;;;;5074490;28;20578;-73
2023/10/01 06:43:48;;;;;;;6.60;4.43;;;14.80;99.90;;;;;;5092399;28;20767;-72
2023/10/01 06:46:19;;;;;;;5.63;4.00;;;14.90;99.90;;;;;;5073988;28;20604;-72
2023/10/01 06:48:47;;;;;;;7.53;4.90;;;15.00;99.90;;;;;;5074122;28;20996;-73
2023/10/01 06:51:15;;;;;;;5.80;4.40;;;15.00;99.90;;;;;;5057546;28;21181;-73
2023/10/01 06:53:47;;;;;;;5.00;4.10;;;15.10;99.90;;;;;;5073925;28;21038;-73
2023/10/01 06:56:17;;;;;;;7.03;4.67;;;15.20;99.90;;;;;;5092056;28;20578;-73
2023/10/01 07:01:56;;;;;;;7.17;4.60;;;15.40;99.90;;;;;;5092229;28;20581;-73
2023/10/01 07:04:31;;;;;;;6.33;4.20;;;15.50;99.90;;;;;;5070507;28;20577;-73
2023/10/01 07:06:57;;;;;;;5.17;3.50;;;15.60;99.90;;;;;;5073722;28;20677;-73
2023/10/01 07:09:45;;;;;;;6.87;3.83;;;15.70;99.90;;;;;;5073426;28;21098;-73
2023/10/01 07:12:09;;;;;;;8.60;3.97;;;15.80;99.90;;;;;;5090995;28;20643;-73
2023/10/01 07:14:43;;;;;;;7.50;3.97;;;15.90;99.90;;;;;;5073777;28;21245;-73
2023/10/01 07:17:18;;;;;;;6.20;3.87;;;16.00;99.90;;;;;;5074013;28;20596;-73
2023/10/01 07:19:45;;;;;;;7.70;4.40;;;16.10;99.90;;;;;;5073817;28;20688;-77
2023/10/01 07:22:14;;;;;;;5.33;3.90;;;16.20;99.90;;;;;;5091849;28;20577;-77
2023/10/01 07:24:44;;;;;;;5.77;3.90;;;16.30;99.90;;;;;;5091721;28;20661;-77
2023/10/01 07:27:11;;;;;;;5.37;3.70;;;16.40;99.90;;;;;;5054476;28;20679;-77
2023/10/01 07:29:44;;;;;;;6.43;5.20;;;16.60;99.90;;;;;;5072821;28;20671;-77
2023/10/01 07:32:12;;;;;;;7.93;4.10;;;16.70;99.90;;;;;;5056928;28;20581;-77
2023/10/01 07:34:55;;;;;;;7.17;3.60;;;16.90;99.90;;;;;;5091742;28;20582;-77
2023/10/01 07:37:25;;;;;;;8.97;4.13;;;17.20;99.90;;;;;;5073270;28;20589;-78
2023/10/01 07:39:56;;;;;;;7.40;4.30;;;17.80;99.90;;;;;;5091539;28;20592;-78
2023/10/01 07:42:25;;;;;;;6.53;3.60;;;18.50;99.90;;;;;;5073059;28;20627;-77
2023/10/01 07:44:53;;;;;;;5.20;3.30;;;19.20;99.90;;;;;;5073100;28;20590;-77
2023/10/01 07:47:32;;;;;;;9.53;4.90;;;20.10;99.90;;;;;;5091226;28;20577;-76
2023/10/01 07:50:12;;;;;;;6.63;3.67;;;21.00;99.90;;;;;;5056193;28;20578;-76
2023/10/01 07:52:41;;;;;;;4.80;3.60;;;21.90;99.90;;;;;;5086172;28;20657;-77
2023/10/01 07:57:52;;;;;;;5.63;3.60;;;23.60;99.90;;;;;;5065607;28;20596;-77
2023/10/01 08:00:28;;;;;;;5.07;3.07;;;24.20;99.90;;;;;;5089534;28;20662;-77
2023/10/01 08:05:39;;;;;;;5.17;3.40;;;25.90;99.90;;;;;;5089085;28;20628;-77
2023/10/01 08:08:13;;;;;;;4.50;3.30;;;26.50;99.90;;;;;;5052353;28;20715;-77
2023/10/01 08:10:40;;;;;;;4.50;2.97;;;27.00;99.90;;;;;;5088735;28;20650;-76
2023/10/01 08:13:23;;;;;;;4.70;3.30;;;27.40;99.90;;;;;;5071445;28;20619;-76
2023/10/01 08:15:59;;;;;;;4.73;3.50;;;27.80;99.90;;;;;;5065927;28;20922;-75
2023/10/01 08:18:34;;;;;;;4.40;2.90;;;27.90;99.90;;;;;;5071380;28;20585;-77
2023/10/01 08:21:02;;;;;;;5.20;2.60;;;27.80;99.90;;;;;;5089850;28;21441;-77
2023/10/01 08:23:31;;;;;;;5.17;3.03;;;27.80;99.90;;;;;;5068664;28;20606;-77
2023/10/01 08:25:58;;;;;;;8.30;3.27;;;28.10;99.90;;;;;;5083843;28;20584;-77
2023/10/01 08:31:01;;;;;;;7.80;3.40;;;28.60;99.90;;;;;;5090446;28;20570;-77
2023/10/01 08:33:32;;;;;;;4.80;3.53;;;29.00;99.90;;;;;;5090617;28;20613;-77
2023/10/01 08:36:14;;;;;;;5.60;3.43;;;29.60;99.90;;;;;;5072692;28;20914;-75
2023/10/01 08:41:32;;;;;;;5.30;3.30;;;30.80;99.90;;;;;;5041413;28;20600;-77
2023/10/01 08:44:09;;;;;;;4.90;3.00;;;31.30;99.90;;;;;;5072696;28;20608;-76
2023/10/01 08:46:39;;;;;;;5.33;3.20;;;31.80;99.90;;;;;;5090442;28;20601;-76
2023/10/01 08:49:23;;;;;;;5.13;3.70;;;32.30;99.90;;;;;;5072336;28;20637;-76
2023/10/01 08:52:18;;;;;;;4.30;2.70;;;32.70;98.90;;;;;;5086221;28;20624;-76
2023/10/01 08:54:48;;;;;;;5.30;3.13;;;33.30;97.90;;;;;;5089049;28;20581;-76
2023/10/01 08:57:22;;;;;;;6.03;4.10;;;33.70;96.40;;;;;;5090679;28;20581;-76
2023/10/01 08:59:47;;;;;;;4.30;2.87;;;33.90;93.90;;;;;;5048139;28;20666;-76
2023/10/01 09:02:23;;;;;;;4.40;3.17;;;34.10;93.50;;;;;;5074366;28;21144;-77
2023/10/01 09:04:50;;;;;;;6.10;3.90;;;34.40;92.70;;;;;;5089426;28;20187;-77
2023/10/01 09:07:18;;;;;;;4.10;3.27;;;34.50;90.50;;;;;;5071906;28;20590;-77
2023/10/01 09:10:08;;;;;;;6.37;4.03;;;34.70;90.10;;;;;;5072499;28;20951;-77
2023/10/01 09:12:35;;;;;;;5.30;3.90;;;34.90;88.50;;;;;;5058785;28;21090;-76
2023/10/01 09:15:04;;;;;;;4.20;3.13;;;34.80;83.10;;;;;;5074261;28;20590;-75
2023/10/01 09:17:56;;;;;;;4.67;3.17;;;34.50;80.20;;;;;;5053017;28;20590;-75
2023/10/01 09:20:39;;;;;;;6.30;4.10;;;34.20;77.90;;;;;;5081014;28;20570;-75
2023/10/01 09:23:05;;;;;;;5.07;3.23;;;34.40;81.20;;;;;;5060304;28;20633;-76
2023/10/01 09:25:34;;;;;;;6.73;4.33;;;34.60;81.50;;;;;;5058490;28;20659;-75
2023/10/01 09:28:19;;;;;;;6.07;4.03;;;34.50;78.40;;;;;;5058564;28;20649;-75
2023/10/01 09:31:01;;;;;;;5.27;4.00;;;34.40;76.50;;;;;;5037549;28;20610;-77
2023/10/01 09:33:29;;;;;;;6.80;4.20;;;34.30;76.00;;;;;;5072263;28;20674;-76
2023/10/01 09:36:02;;;;;;;5.53;4.17;;;34.20;74.00;;;;;;5093559;28;20573;-76
2023/10/01 09:38:29;;;;;;;5.77;4.00;;;33.80;71.00;;;;;;5093898;28;20614;-77
2023/10/01 09:40:56;;;;;;;5.63;4.20;;;33.60;72.10;;;;;;5093828;28;21196;-77
2023/10/01 09:43:29;;;;;;;6.93;3.90;;;33.80;73.00;;;;;;5093837;28;21008;-77
2023/10/01 09:46:00;;;;;;;6.40;4.17;;;33.60;71.20;;;;;;5049198;28;20592;-77
2023/10/01 09:48:33;;;;;;;5.63;4.00;;;33.80;73.00;;;;;;5072975;28;20640;-77
2023/10/01 09:51:07;;;;;;;7.27;4.93;;;33.90;71.80;;;;;;5067899;28;20937;-76
2023/10/01 09:53:44;;;;;;;7.70;4.33;;;33.80;70.20;;;;;;5075847;28;20631;-76
2023/10/01 09:59:11;;;;;;;5.87;3.90;;;33.80;64.30;;;;;;5089063;28;20624;-76
2023/10/01 10:01:41;;;;;;;7.03;4.40;;;33.80;68.10;;;;;;5067171;28;20856;-76
2023/10/01 10:04:11;;;;;;;7.80;4.70;;;33.80;68.20;;;;;;5093315;28;20680;-76
2023/10/01 10:06:39;;;;;;;8.50;4.63;;;33.80;68.80;;;;;;5075082;28;20581;-76
2023/10/01 10:09:09;;;;;;;5.87;4.00;;;33.90;68.50;;;;;;5093106;28;20674;-78
2023/10/01 10:11:43;;;;;;;5.57;4.40;;;34.00;67.80;;;;;;5075047;28;21161;-77
2023/10/01 10:14:25;;;;;;;5.80;4.00;;;34.10;68.10;;;;;;5093215;28;20613;-78
2023/10/01 10:16:58;;;;;;;6.40;4.63;;;34.30;68.10;;;;;;5074844;28;20586;-77
2023/10/01 10:19:31;;;;;;;5.30;3.80;;;34.30;67.30;;;;;;5058385;28;20582;-78
2023/10/01 10:24:29;;;;;;;6.43;4.10;;;34.30;68.40;;;;;;5093061;28;20933;-76
2023/10/01 10:27:03;;;;;;;6.53;4.40;;;34.30;67.30;;;;;;5092671;28;20993;-76
2023/10/01 10:29:55;;;;;;;9.83;4.40;;;34.30;67.10;;;;;;5074323;28;20635;-77
2023/10/01 10:32:24;;;;;;;6.40;5.10;;;34.20;65.70;;;;;;5088092;28;20601;-76
2023/10/01 10:35:05;;;;;;;5.80;4.00;;;33.90;64.60;;;;;;5092693;28;20581;-76
2023/10/01 10:37:36;;;;;;;6.63;4.50;;;33.60;64.30;;;;;;5092705;28;20592;-76
2023/10/01 10:40:12;;;;;;;7.00;4.50;;;33.30;63.10;;;;;;5074725;28;20598;-76
2023/10/01 10:42:44;;;;;;;5.23;3.80;;;33.20;64.00;;;;;;5092521;28;20609;-76
2023/10/01 10:45:19;;;;;;;6.53;4.90;;;32.90;63.50;;;;;;5073633;28;20578;-76
2023/10/01 10:48:02;;;;;;;8.30;4.47;;;32.60;62.60;;;;;;5092115;28;20639;-76
2023/10/01 10:50:51;;;;;;;8.23;4.50;;;32.40;64.10;;;;;;5074353;28;20590;-76
2023/10/01 10:53:21;;;;;;;7.07;4.93;;;32.30;63.90;;;;;;5092136;28;20656;-76
2023/10/01 10:55:56;;;;;;;6.83;4.50;;;32.40;65.20;;;;;;5092200;28;20994;-76
2023/10/01 10:58:28;;;;;;;5.80;4.20;;;32.30;64.70;;;;;;5057394;28;20597;-76
2023/10/01 11:01:15;;;;;;;7.30;3.60;;;32.40;66.40;;;;;;5071703;28;20589;-76
2023/10/01 11:03:43;;;;;;;6.93;4.47;;;32.40;65.80;;;;;;5055233;28;21194;-76
2023/10/01 11:06:43;;;;;;;8.80;4.60;;;32.60;66.40;;;;;;5056749;28;20587;-76
2023/10/01 11:09:28;;;;;;;5.20;3.80;;;32.70;62.30;;;;;;5048159;28;20671;-76
2023/10/01 11:12:06;;;;;;;7.77;4.83;;;32.70;65.50;;;;;;5091341;28;20569;-76
2023/10/01 11:14:36;;;;;;;7.13;5.20;;;32.80;65.80;;;;;;5074105;28;20588;-76
2023/10/01 11:17:06;;;;;;;6.83;4.50;;;32.80;65.30;;;;;;5091669;28;20630;-76
2023/10/01 11:19:35;;;;;;;5.20;4.00;;;32.80;66.00;;;;;;5087534;28;20589;-75
2023/10/01 11:22:03;;;;;;;7.37;4.83;;;33.00;66.60;;;;;;5091501;28;20573;-76
2023/10/01 11:24:34;;;;;;;6.20;4.23;;;33.30;66.20;;;;;;5073695;28;20638;-76
2023/10/01 11:27:24;;;;;;;8.13;5.03;;;33.50;65.70;;;;;;5073166;28;20589;-75
2023/10/01 11:29:59;;;;;;;7.67;4.90;;;33.50;63.00;;;;;;5073673;28;20593;-75
2023/10/01 11:33:13;;;;;;;6.83;4.53;;;33.50;63.50;;;;;;5057164;28;20613;-76
2023/10/01 11:35:59;;;;;;;8.30;4.80;;;33.30;63.50;;;;;;4992478;28;20589;-77
2023/10/01 11:38:26;;;;;;;7.47;4.60;;;33.20;63.40;;;;;;5091613;28;20591;-78
2023/10/01 11:41:06;;;;;;;10.20;5.10;;;33.30;63.90;;;;;;5091643;28;20577;-77
2023/10/01 11:43:59;;;;;;;8.67;4.60;;;33.40;63.20;;;;;;5092188;28;20623;-77
2023/10/01 11:46:34;;;;;;;7.67;4.93;;;33.50;63.30;;;;;;5091394;28;21184;-78
2023/10/01 11:49:06;;;;;;;8.73;6.10;;;33.50;63.30;;;;;;5073262;28;20637;-78
2023/10/01 11:51:41;;;;;;;6.83;5.37;;;33.30;59.20;;;;;;5073322;28;20662;-78
2023/10/01 11:54:09;;;;;;;7.70;5.40;;;33.20;61.40;;;;;;5073589;28;20716;-78
2023/10/01 11:56:37;;;;;;;8.20;4.90;;;33.00;61.20;;;;;;5072859;28;20620;-78
2023/10/01 11:59:06;;;;;;;7.50;4.97;;;32.90;61.10;;;;;;5073281;28;20611;-77
2023/10/01 12:01:39;;;;;;;9.00;5.13;;;32.60;59.90;;;;;;5053105;28;21128;-77
2023/10/01 12:04:08;;;;;;;7.70;5.53;;;32.40;61.00;;;;;;5058407;28;20690;-77
2023/10/01 12:06:34;;;;;;;7.83;4.73;;;32.30;61.10;;;;;;5068972;28;20585;-77
2023/10/01 12:09:01;;;;;;;10.27;5.27;;;32.30;61.90;;;;;;5072803;28;20716;-77
2023/10/01 12:11:26;;;;;;;6.47;4.97;;;32.40;62.00;;;;;;5039368;28;20600;-77
2023/10/01 12:14:06;;;;;;;8.30;5.23;;;32.10;60.50;;;;;;5072866;28;20613;-76
2023/10/01 12:16:39;;;;;;;9.30;5.93;;;31.90;60.80;;;;;;5091117;28;20189;-77
2023/10/01 12:19:24;;;;;;;10.10;5.93;;;31.90;61.30;;;;;;5091451;28;20609;-76
2023/10/01 12:22:05;;;;;;;7.30;5.53;;;31.80;60.70;;;;;;5057811;28;20931;-76
2023/10/01 12:24:40;;;;;;;9.17;5.73;;;31.70;60.40;;;;;;5090880;28;20606;-77
2023/10/01 12:27:07;;;;;;;8.60;5.43;;;31.40;60.40;;;;;;5091961;28;20613;-75
2023/10/01 12:29:43;;;;;;;8.00;5.20;;;31.40;61.20;;;;;;5057706;28;20632;-76
2023/10/01 12:32:14;;;;;;;6.77;4.63;;;31.30;61.00;;;;;;5062714;28;20611;-77
2023/10/01 12:34:42;;;;;;;8.27;5.47;;;31.30;61.30;;;;;;5077889;28;20635;-78
2023/10/01 12:37:35;;;;;;;6.60;5.07;;;31.30;62.00;;;;;;5071829;28;20585;-78
2023/10/01 12:40:14;;;;;;;7.03;4.90;;;31.30;61.70;;;;;;5089557;28;21031;-78
2023/10/01 12:42:41;;;;;;;7.40;6.10;;;31.30;61.90;;;;;;5052638;28;20616;-77
2023/10/01 12:45:19;;;;;;;8.83;5.17;;;31.20;61.50;;;;;;5073057;28;20660;-76
2023/10/01 12:47:51;;;;;;;7.37;5.47;;;31.20;61.70;;;;;;5091308;28;20683;-77
2023/10/01 12:50:26;;;;;;;8.43;5.47;;;31.20;62.00;;;;;;5073405;28;20578;-76
2023/10/01 12:55:44;;;;;;;8.40;6.07;;;31.20;61.30;;;;;;5072317;28;20644;-76
2023/10/01 12:58:09;;;;;;;7.57;5.10;;;31.20;61.50;;;;;;5079838;28;20588;-77
2023/10/01 13:00:45;;;;;;;9.30;6.83;;;31.10;61.30;;;;;;5075866;28;20645;-77
2023/10/01 13:03:19;;;;;;;8.07;5.70;;;31.10;60.80;;;;;;5090368;28;20555;-76
2023/10/01 13:05:53;;;;;;;9.20;6.47;;;30.90;60.00;;;;;;5089046;28;20724;-76
2023/10/01 13:08:28;;;;;;;7.13;5.20;;;30.60;59.30;;;;;;5065137;28;20673;-73
2023/10/01 13:10:57;;;;;;;12.60;8.83;;;30.30;59.40;;;;;;5058800;28;20676;-73
2023/10/01 13:13:29;;;;;;;13.27;8.33;;;29.90;58.90;;;;;;5076297;28;20622;-73
2023/10/01 13:15:59;;;;;;;10.83;6.83;;;29.60;59.10;;;;;;5099686;28;20598;-73
2023/10/01 13:18:33;;;;;;;9.57;6.03;;;29.30;59.00;;;;;;5082373;28;20596;-77
2023/10/01 13:21:07;;;;;;;10.80;5.93;;;29.00;59.20;;;;;;5094848;28;20631;-77
2023/10/01 13:23:41;;;;;;;9.70;5.90;;;28.80;59.40;;;;;;5076429;28;20620;-77
2023/10/01 13:26:10;;;;;;;7.63;5.40;;;28.60;59.70;;;;;;5076259;28;20579;-79
2023/10/01 13:28:46;;;;;;;11.40;7.03;;;28.40;60.10;;;;;;5094470;28;20674;-78
2023/10/01 13:33:56;;;;;;;9.87;5.80;;;28.20;60.90;;;;;;5094355;28;20616;-78
2023/10/01 13:36:35;;;;;;;9.30;6.10;;;28.00;60.80;;;;;;5079692;28;20570;-79
2023/10/01 14:08:50;;;;;;;10.30;5.83;;;27.10;64.10;;;;;;5092531;28;20729;-75
2023/10/01 14:11:17;;;;;;;9.80;6.57;;;27.10;64.40;;;;;;5093346;28;20597;-74
2023/10/01 14:13:43;;;;;;;8.03;5.77;;;27.00;64.80;;;;;;5093152;28;20976;-73
2023/10/01 14:16:17;;;;;;;8.47;6.10;;;27.00;65.00;;;;;;5054731;28;20571;-73
2023/10/01 14:19:13;;;;;;;8.93;5.60;;;27.00;65.30;;;;;;5069305;28;20658;-74
2023/10/01 14:21:40;;;;;;;9.27;6.33;;;27.00;66.00;;;;;;5040527;28;20635;-74
2023/10/01 14:24:21;;;;;;;9.50;5.60;;;27.00;66.40;;;;;;5074797;28;20648;-75
2023/10/01 14:26:50;;;;;;;9.33;5.90;;;27.00;66.90;;;;;;5074593;28;21011;-76
2023/10/01 14:29:22;;;;;;;11.60;6.50;;;26.90;67.20;;;;;;5093168;28;20632;-75
2023/10/01 14:31:52;;;;;;;10.03;6.20;;;26.90;67.70;;;;;;5074988;28;20594;-76